sensor_id;sensor_type;location;lat;lon;timestamp;temperature;humidity
35463;DHT22;21578;47.892;9.970;2023-12-20T00:04:14;3.50;96.60
35463;DHT22;21578;47.892;9.970;2023-12-20T00:09:03;3.50;96.60
35463;DHT22;21578;47.892;9.970;2023-12-20T00:13:49;3.50;96.60
35463;DHT22;21578;47.892;9.970;2023-12-20T00:18:37;3.40;96.60
35463;DHT22;21578;47.892;9.970;2023-12-20T00:23:24;3.50;96.60
35463;DHT22;21578;47.892;9.970;2023-12-20T00:28:12;3.40;96.60
35463;DHT22;21578;47.892;9.970;2023-12-20T00:32:58;3.50;96.60
35463;DHT22;21578;47.892;9.970;2023-12-20T00:37:45;3.40;96.60
35463;DHT22;21578;47.892;9.970;2023-12-20T00:42:32;3.40;96.60
35463;DHT22;21578;47.892;9.970;2023-12-20T00:47:20;3.30;96.60
35463;DHT22;21578;47.892;9.970;2023-12-20T00:52:07;3.30;96.60
35463;DHT22;21578;47.892;9.970;2023-12-20T00:56:54;3.30;96.60
35463;DHT22;21578;47.892;9.970;2023-12-20T01:01:41;3.30;96.60
35463;DHT22;21578;47.892;9.970;2023-12-20T01:06:29;3.40;96.60
35463;DHT22;21578;47.892;9.970;2023-12-20T01:11:16;3.40;96.60
35463;DHT22;21578;47.892;9.970;2023-12-20T01:16:03;3.60;96.60
35463;DHT22;21578;47.892;9.970;2023-12-20T01:20:50;3.50;96.60
35463;DHT22;21578;47.892;9.970;2023-12-20T01:25:38;3.70;96.60
35463;DHT22;21578;47.892;9.970;2023-12-20T01:30:25;3.60;96.60
35463;DHT22;21578;47.892;9.970;2023-12-20T01:35:12;3.50;96.60
35463;DHT22;21578;47.892;9.970;2023-12-20T01:39:59;3.60;96.60
35463;DHT22;21578;47.892;9.970;2023-12-20T01:44:47;3.60;96.60
35463;DHT22;21578;47.892;9.970;2023-12-20T01:49:34;3.60;96.60
35463;DHT22;21578;47.892;9.970;2023-12-20T01:54:21;3.60;96.60
35463;DHT22;21578;47.892;9.970;2023-12-20T01:59:08;3.60;96.60
35463;DHT22;21578;47.892;9.970;2023-12-20T02:03:57;3.60;96.60
35463;DHT22;21578;47.892;9.970;2023-12-20T02:08:44;3.50;96.60
35463;DHT22;21578;47.892;9.970;2023-12-20T02:13:31;3.50;96.60
35463;DHT22;21578;47.892;9.970;2023-12-20T02:18:18;3.60;96.60
35463;DHT22;21578;47.892;9.970;2023-12-20T02:23:06;3.70;96.60
35463;DHT22;21578;47.892;9.970;2023-12-20T02:27:52;3.70;96.60
35463;DHT22;21578;47.892;9.970;2023-12-20T02:32:40;3.70;96.60
35463;DHT22;21578;47.892;9.970;2023-12-20T02:37:26;3.80;96.60
35463;DHT22;21578;47.892;9.970;2023-12-20T02:42:14;3.80;96.60
35463;DHT22;21578;47.892;9.970;2023-12-20T02:47:01;3.80;96.60
35463;DHT22;21578;47.892;9.970;2023-12-20T02:51:48;3.70;96.60
35463;DHT22;21578;47.892;9.970;2023-12-20T02:56:34;3.80;96.60
35463;DHT22;21578;47.892;9.970;2023-12-20T03:01:23;3.70;96.60
35463;DHT22;21578;47.892;9.970;2023-12-20T03:06:09;3.70;96.60
35463;DHT22;21578;47.892;9.970;2023-12-20T03:10:56;3.70;96.60
35463;DHT22;21578;47.892;9.970;2023-12-20T03:15:43;3.60;96.60
35463;DHT22;21578;47.892;9.970;2023-12-20T03:20:31;3.60;96.60
35463;DHT22;21578;47.892;9.970;2023-12-20T03:25:19;3.60;96.60
35463;DHT22;21578;47.892;9.970;2023-12-20T03:30:07;3.60;96.60
35463;DHT22;21578;47.892;9.970;2023-12-20T03:34:53;3.50;96.60
35463;DHT22;21578;47.892;9.970;2023-12-20T03:39:41;3.40;96.60
35463;DHT22;21578;47.892;9.970;2023-12-20T03:44:28;3.50;96.60
35463;DHT22;21578;47.892;9.970;2023-12-20T03:49:15;3.50;96.60
35463;DHT22;21578;47.892;9.970;2023-12-20T03:54:01;3.40;96.60
35463;DHT22;21578;47.892;9.970;2023-12-20T03:58:50;3.40;96.60
35463;DHT22;21578;47.892;9.970;2023-12-20T04:03:36;3.40;96.60
35463;DHT22;21578;47.892;9.970;2023-12-20T04:08:23;3.40;96.60
35463;DHT22;21578;47.892;9.970;2023-12-20T04:13:10;3.40;96.60
35463;DHT22;21578;47.892;9.970;2023-12-20T04:17:58;3.40;96.60
35463;DHT22;21578;47.892;9.970;2023-12-20T04:22:44;3.40;96.60
35463;DHT22;21578;47.892;9.970;2023-12-20T04:27:31;3.50;96.60
35463;DHT22;21578;47.892;9.970;2023-12-20T04:32:18;3.40;96.60
35463;DHT22;21578;47.892;9.970;2023-12-20T04:37:06;3.40;96.60
35463;DHT22;21578;47.892;9.970;2023-12-20T04:41:53;3.30;96.60
35463;DHT22;21578;47.892;9.970;2023-12-20T04:46:39;3.30;96.60
35463;DHT22;21578;47.892;9.970;2023-12-20T04:51:26;3.30;96.60
35463;DHT22;21578;47.892;9.970;2023-12-20T04:56:14;3.30;96.60
35463;DHT22;21578;47.892;9.970;2023-12-20T05:01:01;3.30;96.60
35463;DHT22;21578;47.892;9.970;2023-12-20T05:05:48;3.30;96.60
35463;DHT22;21578;47.892;9.970;2023-12-20T05:10:35;3.20;96.60
35463;DHT22;21578;47.892;9.970;2023-12-20T05:15:23;3.20;96.60
35463;DHT22;21578;47.892;9.970;2023-12-20T05:20:10;3.10;96.60
35463;DHT22;21578;47.892;9.970;2023-12-20T05:24:56;3.10;96.60
35463;DHT22;21578;47.892;9.970;2023-12-20T05:29:43;3.10;96.60
35463;DHT22;21578;47.892;9.970;2023-12-20T05:34:31;3.00;96.60
35463;DHT22;21578;47.892;9.970;2023-12-20T05:39:18;3.00;96.60
35463;DHT22;21578;47.892;9.970;2023-12-20T05:44:05;3.00;96.60
35463;DHT22;21578;47.892;9.970;2023-12-20T05:48:51;3.00;96.60
35463;DHT22;21578;47.892;9.970;2023-12-20T05:53:40;2.90;96.60
35463;DHT22;21578;47.892;9.970;2023-12-20T05:58:26;2.90;96.60
35463;DHT22;21578;47.892;9.970;2023-12-20T06:03:14;2.90;96.60
35463;DHT22;21578;47.892;9.970;2023-12-20T06:08:01;2.90;96.60
35463;DHT22;21578;47.892;9.970;2023-12-20T06:12:49;2.90;96.60
35463;DHT22;21578;47.892;9.970;2023-12-20T06:17:36;2.90;96.60
35463;DHT22;21578;47.892;9.970;2023-12-20T06:22:23;2.90;96.60
35463;DHT22;21578;47.892;9.970;2023-12-20T06:27:10;2.90;96.60
35463;DHT22;21578;47.892;9.970;2023-12-20T06:31:58;3.00;96.60
35463;DHT22;21578;47.892;9.970;2023-12-20T06:36:44;3.00;96.60
35463;DHT22;21578;47.892;9.970;2023-12-20T06:41:31;3.10;96.60
35463;DHT22;21578;47.892;9.970;2023-12-20T06:46:18;3.10;96.60
35463;DHT22;21578;47.892;9.970;2023-12-20T06:51:06;3.20;96.60
35463;DHT22;21578;47.892;9.970;2023-12-20T06:55:53;3.10;96.60
35463;DHT22;21578;47.892;9.970;2023-12-20T07:00:41;3.20;96.60
35463;DHT22;21578;47.892;9.970;2023-12-20T07:05:28;3.30;96.60
35463;DHT22;21578;47.892;9.970;2023-12-20T07:10:16;3.30;96.60
35463;DHT22;21578;47.892;9.970;2023-12-20T07:15:04;3.30;96.60
35463;DHT22;21578;47.892;9.970;2023-12-20T07:19:52;3.40;96.60
35463;DHT22;21578;47.892;9.970;2023-12-20T07:24:38;3.40;96.60
35463;DHT22;21578;47.892;9.970;2023-12-20T07:29:27;3.50;96.60
35463;DHT22;21578;47.892;9.970;2023-12-20T07:34:13;3.50;96.60
35463;DHT22;21578;47.892;9.970;2023-12-20T07:39:00;3.50;96.60
35463;DHT22;21578;47.892;9.970;2023-12-20T07:43:47;3.50;96.60
35463;DHT22;21578;47.892;9.970;2023-12-20T07:48:35;3.50;96.60
35463;DHT22;21578;47.892;9.970;2023-12-20T07:53:22;3.50;96.60
35463;DHT22;21578;47.892;9.970;2023-12-20T07:58:08;3.60;96.60
35463;DHT22;21578;47.892;9.970;2023-12-20T08:02:56;3.50;96.60
35463;DHT22;21578;47.892;9.970;2023-12-20T08:07:44;3.60;96.60
35463;DHT22;21578;47.892;9.970;2023-12-20T08:12:30;3.60;96.60
35463;DHT22;21578;47.892;9.970;2023-12-20T08:17:17;3.50;96.60
35463;DHT22;21578;47.892;9.970;2023-12-20T08:22:04;3.60;96.60
35463;DHT22;21578;47.892;9.970;2023-12-20T08:26:52;3.70;96.60
35463;DHT22;21578;47.892;9.970;2023-12-20T08:31:39;3.60;96.60
35463;DHT22;21578;47.892;9.970;2023-12-20T08:36:26;3.70;96.60
35463;DHT22;21578;47.892;9.970;2023-12-20T08:41:13;3.70;96.60
35463;DHT22;21578;47.892;9.970;2023-12-20T08:46:01;3.80;96.60
35463;DHT22;21578;47.892;9.970;2023-12-20T08:50:47;3.80;96.60
35463;DHT22;21578;47.892;9.970;2023-12-20T08:55:35;3.90;96.60
35463;DHT22;21578;47.892;9.970;2023-12-20T09:00:22;3.80;96.60
35463;DHT22;21578;47.892;9.970;2023-12-20T09:05:11;3.80;96.60
35463;DHT22;21578;47.892;9.970;2023-12-20T09:09:58;3.90;96.60
35463;DHT22;21578;47.892;9.970;2023-12-20T09:14:45;4.00;96.60
35463;DHT22;21578;47.892;9.970;2023-12-20T09:19:31;4.00;96.60
35463;DHT22;21578;47.892;9.970;2023-12-20T09:24:19;4.00;96.60
35463;DHT22;21578;47.892;9.970;2023-12-20T09:29:06;4.00;96.60
35463;DHT22;21578;47.892;9.970;2023-12-20T09:33:54;4.00;96.60
35463;DHT22;21578;47.892;9.970;2023-12-20T09:38:41;4.00;96.60
35463;DHT22;21578;47.892;9.970;2023-12-20T09:43:30;4.00;96.60
35463;DHT22;21578;47.892;9.970;2023-12-20T09:48:18;4.00;96.60
35463;DHT22;21578;47.892;9.970;2023-12-20T09:53:08;4.00;96.60
35463;DHT22;21578;47.892;9.970;2023-12-20T09:57:55;4.10;96.60
35463;DHT22;21578;47.892;9.970;2023-12-20T10:02:49;4.10;96.60
35463;DHT22;21578;47.892;9.970;2023-12-20T10:07:36;4.10;96.60
35463;DHT22;21578;47.892;9.970;2023-12-20T10:12:23;4.10;96.60
35463;DHT22;21578;47.892;9.970;2023-12-20T10:17:09;4.10;96.60
35463;DHT22;21578;47.892;9.970;2023-12-20T10:21:58;4.10;96.60
35463;DHT22;21578;47.892;9.970;2023-12-20T10:26:45;4.10;96.60
35463;DHT22;21578;47.892;9.970;2023-12-20T10:31:33;4.10;96.60
35463;DHT22;21578;47.892;9.970;2023-12-20T10:36:20;4.10;96.60
35463;DHT22;21578;47.892;9.970;2023-12-20T10:41:09;4.10;96.60
35463;DHT22;21578;47.892;9.970;2023-12-20T10:45:56;4.10;96.60
35463;DHT22;21578;47.892;9.970;2023-12-20T10:50:43;4.20;96.60
35463;DHT22;21578;47.892;9.970;2023-12-20T10:55:30;4.30;96.60
35463;DHT22;21578;47.892;9.970;2023-12-20T11:00:21;4.30;96.60
35463;DHT22;21578;47.892;9.970;2023-12-20T11:05:16;4.40;96.60
35463;DHT22;21578;47.892;9.970;2023-12-20T11:10:13;4.40;96.60
35463;DHT22;21578;47.892;9.970;2023-12-20T11:15:03;4.40;96.60
35463;DHT22;21578;47.892;9.970;2023-12-20T11:20:08;4.50;96.60
35463;DHT22;21578;47.892;9.970;2023-12-20T11:24:59;4.50;96.60
35463;DHT22;21578;47.892;9.970;2023-12-20T11:29:51;4.50;96.60
35463;DHT22;21578;47.892;9.970;2023-12-20T11:34:38;4.60;96.60
35463;DHT22;21578;47.892;9.970;2023-12-20T11:39:30;4.70;96.60
35463;DHT22;21578;47.892;9.970;2023-12-20T11:44:17;4.80;96.60
35463;DHT22;21578;47.892;9.970;2023-12-20T11:49:04;4.90;96.60
35463;DHT22;21578;47.892;9.970;2023-12-20T11:53:51;4.90;96.60
35463;DHT22;21578;47.892;9.970;2023-12-20T11:58:40;4.80;96.60
35463;DHT22;21578;47.892;9.970;2023-12-20T12:03:26;5.00;96.60
35463;DHT22;21578;47.892;9.970;2023-12-20T12:08:13;4.90;96.60
35463;DHT22;21578;47.892;9.970;2023-12-20T12:13:00;4.80;96.60
35463;DHT22;21578;47.892;9.970;2023-12-20T12:17:54;4.80;96.60
35463;DHT22;21578;47.892;9.970;2023-12-20T12:22:41;4.70;96.60
35463;DHT22;21578;47.892;9.970;2023-12-20T12:27:28;4.70;96.60
35463;DHT22;21578;47.892;9.970;2023-12-20T12:32:15;4.80;96.60
35463;DHT22;21578;47.892;9.970;2023-12-20T12:37:03;4.90;96.60
35463;DHT22;21578;47.892;9.970;2023-12-20T12:41:50;4.90;96.60
35463;DHT22;21578;47.892;9.970;2023-12-20T12:46:37;4.90;96.60
35463;DHT22;21578;47.892;9.970;2023-12-20T12:51:24;4.90;96.60
35463;DHT22;21578;47.892;9.970;2023-12-20T12:56:12;5.00;96.60
35463;DHT22;21578;47.892;9.970;2023-12-20T13:00:59;4.90;96.60
35463;DHT22;21578;47.892;9.970;2023-12-20T13:05:46;4.90;96.60
35463;DHT22;21578;47.892;9.970;2023-12-20T13:10:33;4.80;96.60
35463;DHT22;21578;47.892;9.970;2023-12-20T13:15:21;4.70;96.60
35463;DHT22;21578;47.892;9.970;2023-12-20T13:20:08;4.60;96.60
35463;DHT22;21578;47.892;9.970;2023-12-20T13:24:55;4.60;96.60
35463;DHT22;21578;47.892;9.970;2023-12-20T13:29:41;4.50;96.60
35463;DHT22;21578;47.892;9.970;2023-12-20T13:34:29;4.40;96.60
35463;DHT22;21578;47.892;9.970;2023-12-20T13:39:16;4.50;96.60
35463;DHT22;21578;47.892;9.970;2023-12-20T13:44:03;4.50;96.60
35463;DHT22;21578;47.892;9.970;2023-12-20T13:48:50;4.40;96.60
35463;DHT22;21578;47.892;9.970;2023-12-20T13:53:38;4.40;96.60
35463;DHT22;21578;47.892;9.970;2023-12-20T13:58:24;4.30;96.60
35463;DHT22;21578;47.892;9.970;2023-12-20T14:03:11;4.40;96.60
35463;DHT22;21578;47.892;9.970;2023-12-20T14:07:58;4.40;96.60
35463;DHT22;21578;47.892;9.970;2023-12-20T14:12:47;4.30;96.60
35463;DHT22;21578;47.892;9.970;2023-12-20T14:17:33;4.30;96.60
35463;DHT22;21578;47.892;9.970;2023-12-20T14:22:20;4.30;96.60
35463;DHT22;21578;47.892;9.970;2023-12-20T14:27:07;4.20;96.60
35463;DHT22;21578;47.892;9.970;2023-12-20T14:31:56;4.20;96.60
35463;DHT22;21578;47.892;9.970;2023-12-20T14:36:42;4.10;96.60
35463;DHT22;21578;47.892;9.970;2023-12-20T14:41:29;4.00;96.60
35463;DHT22;21578;47.892;9.970;2023-12-20T14:46:16;4.00;96.60
35463;DHT22;21578;47.892;9.970;2023-12-20T14:51:05;3.90;96.60
35463;DHT22;21578;47.892;9.970;2023-12-20T14:55:52;3.80;96.60
35463;DHT22;21578;47.892;9.970;2023-12-20T15:00:38;3.70;96.60
35463;DHT22;21578;47.892;9.970;2023-12-20T15:05:25;3.60;96.60
35463;DHT22;21578;47.892;9.970;2023-12-20T15:10:13;3.60;96.60
35463;DHT22;21578;47.892;9.970;2023-12-20T15:15:02;3.50;96.60
35463;DHT22;21578;47.892;9.970;2023-12-20T15:19:50;3.50;96.60
35463;DHT22;21578;47.892;9.970;2023-12-20T15:24:37;3.30;96.60
35463;DHT22;21578;47.892;9.970;2023-12-20T15:29:27;3.20;96.60
35463;DHT22;21578;47.892;9.970;2023-12-20T15:34:14;3.20;96.60
35463;DHT22;21578;47.892;9.970;2023-12-20T15:39:01;3.20;96.60
35463;DHT22;21578;47.892;9.970;2023-12-20T15:43:49;3.10;96.60
35463;DHT22;21578;47.892;9.970;2023-12-20T15:48:38;3.00;96.60
35463;DHT22;21578;47.892;9.970;2023-12-20T15:53:25;3.00;96.60
35463;DHT22;21578;47.892;9.970;2023-12-20T15:58:12;2.80;96.60
35463;DHT22;21578;47.892;9.970;2023-12-20T16:02:58;2.60;96.60
35463;DHT22;21578;47.892;9.970;2023-12-20T16:07:46;2.50;96.60
35463;DHT22;21578;47.892;9.970;2023-12-20T16:12:33;2.50;96.60
35463;DHT22;21578;47.892;9.970;2023-12-20T16:17:20;2.60;96.60
35463;DHT22;21578;47.892;9.970;2023-12-20T16:22:06;2.60;96.60
35463;DHT22;21578;47.892;9.970;2023-12-20T16:26:54;2.40;96.60
35463;DHT22;21578;47.892;9.970;2023-12-20T16:31:41;2.30;96.60
35463;DHT22;21578;47.892;9.970;2023-12-20T16:36:48;2.40;96.60
35463;DHT22;21578;47.892;9.970;2023-12-20T16:41:35;2.50;96.60
35463;DHT22;21578;47.892;9.970;2023-12-20T16:46:23;2.50;96.60
35463;DHT22;21578;47.892;9.970;2023-12-20T16:51:10;2.60;96.60
35463;DHT22;21578;47.892;9.970;2023-12-20T16:55:57;2.70;96.60
35463;DHT22;21578;47.892;9.970;2023-12-20T17:00:45;2.60;96.60
35463;DHT22;21578;47.892;9.970;2023-12-20T17:05:34;2.50;96.60
35463;DHT22;21578;47.892;9.970;2023-12-20T17:10:21;2.50;96.60
35463;DHT22;21578;47.892;9.970;2023-12-20T17:15:08;2.40;96.60
35463;DHT22;21578;47.892;9.970;2023-12-20T17:19:55;2.50;96.60
35463;DHT22;21578;47.892;9.970;2023-12-20T17:24:43;2.40;96.60
35463;DHT22;21578;47.892;9.970;2023-12-20T17:29:30;2.40;96.60
35463;DHT22;21578;47.892;9.970;2023-12-20T17:34:16;2.30;96.60
35463;DHT22;21578;47.892;9.970;2023-12-20T17:39:03;2.30;96.60
35463;DHT22;21578;47.892;9.970;2023-12-20T17:43:51;2.40;96.60
35463;DHT22;21578;47.892;9.970;2023-12-20T17:48:38;2.50;96.60
35463;DHT22;21578;47.892;9.970;2023-12-20T17:53:25;2.40;96.60
35463;DHT22;21578;47.892;9.970;2023-12-20T17:58:11;2.30;96.60
35463;DHT22;21578;47.892;9.970;2023-12-20T18:03:00;2.30;96.60
35463;DHT22;21578;47.892;9.970;2023-12-20T18:07:47;2.20;96.60
35463;DHT22;21578;47.892;9.970;2023-12-20T18:12:33;2.30;96.60
35463;DHT22;21578;47.892;9.970;2023-12-20T18:17:20;2.20;96.60
35463;DHT22;21578;47.892;9.970;2023-12-20T18:22:08;2.10;96.60
35463;DHT22;21578;47.892;9.970;2023-12-20T18:26:55;2.00;96.60
35463;DHT22;21578;47.892;9.970;2023-12-20T18:31:42;2.10;96.60
35463;DHT22;21578;47.892;9.970;2023-12-20T18:36:31;2.20;96.60
35463;DHT22;21578;47.892;9.970;2023-12-20T18:41:19;2.10;96.60
35463;DHT22;21578;47.892;9.970;2023-12-20T18:46:06;2.10;96.60
35463;DHT22;21578;47.892;9.970;2023-12-20T18:50:53;2.00;96.60
35463;DHT22;21578;47.892;9.970;2023-12-20T18:55:40;2.10;96.60
35463;DHT22;21578;47.892;9.970;2023-12-20T19:00:28;2.00;96.60
35463;DHT22;21578;47.892;9.970;2023-12-20T19:05:15;2.00;96.60
35463;DHT22;21578;47.892;9.970;2023-12-20T19:10:01;2.00;96.60
35463;DHT22;21578;47.892;9.970;2023-12-20T19:14:49;2.00;96.60
35463;DHT22;21578;47.892;9.970;2023-12-20T19:19:37;2.20;96.60
35463;DHT22;21578;47.892;9.970;2023-12-20T19:24:24;2.10;96.60
35463;DHT22;21578;47.892;9.970;2023-12-20T19:29:11;2.10;96.60
35463;DHT22;21578;47.892;9.970;2023-12-20T19:33:58;2.10;96.60
35463;DHT22;21578;47.892;9.970;2023-12-20T19:38:46;2.10;96.60
35463;DHT22;21578;47.892;9.970;2023-12-20T19:43:33;2.20;96.60
35463;DHT22;21578;47.892;9.970;2023-12-20T19:48:19;2.20;96.60
35463;DHT22;21578;47.892;9.970;2023-12-20T19:53:06;2.20;96.60
35463;DHT22;21578;47.892;9.970;2023-12-20T19:57:54;2.20;96.60
35463;DHT22;21578;47.892;9.970;2023-12-20T20:02:41;2.20;96.60
35463;DHT22;21578;47.892;9.970;2023-12-20T20:07:28;2.20;96.60
35463;DHT22;21578;47.892;9.970;2023-12-20T20:12:14;2.20;96.60
35463;DHT22;21578;47.892;9.970;2023-12-20T20:17:03;2.20;96.60
35463;DHT22;21578;47.892;9.970;2023-12-20T20:21:50;2.20;96.60
35463;DHT22;21578;47.892;9.970;2023-12-20T20:26:36;2.20;96.60
35463;DHT22;21578;47.892;9.970;2023-12-20T20:31:23;2.20;96.60
35463;DHT22;21578;47.892;9.970;2023-12-20T20:36:11;2.20;96.60
35463;DHT22;21578;47.892;9.970;2023-12-20T20:40:58;2.20;96.60
35463;DHT22;21578;47.892;9.970;2023-12-20T20:45:44;2.20;96.60
35463;DHT22;21578;47.892;9.970;2023-12-20T20:50:31;2.20;96.60
35463;DHT22;21578;47.892;9.970;2023-12-20T20:55:19;2.20;96.60
35463;DHT22;21578;47.892;9.970;2023-12-20T21:00:07;2.20;96.60
35463;DHT22;21578;47.892;9.970;2023-12-20T21:04:54;2.20;96.60
35463;DHT22;21578;47.892;9.970;2023-12-20T21:09:40;2.10;96.60
35463;DHT22;21578;47.892;9.970;2023-12-20T21:14:29;2.00;96.60
35463;DHT22;21578;47.892;9.970;2023-12-20T21:19:16;2.00;96.60
35463;DHT22;21578;47.892;9.970;2023-12-20T21:24:02;2.00;96.60
35463;DHT22;21578;47.892;9.970;2023-12-20T21:28:49;2.00;96.60
35463;DHT22;21578;47.892;9.970;2023-12-20T21:33:37;1.90;96.60
35463;DHT22;21578;47.892;9.970;2023-12-20T21:38:25;1.90;96.60
35463;DHT22;21578;47.892;9.970;2023-12-20T21:43:12;1.90;96.60
35463;DHT22;21578;47.892;9.970;2023-12-20T21:47:59;1.90;96.60
35463;DHT22;21578;47.892;9.970;2023-12-20T21:52:47;1.90;96.60
35463;DHT22;21578;47.892;9.970;2023-12-20T21:57:33;1.90;96.60
35463;DHT22;21578;47.892;9.970;2023-12-20T22:02:20;1.90;96.60
35463;DHT22;21578;47.892;9.970;2023-12-20T22:07:07;2.00;96.60
35463;DHT22;21578;47.892;9.970;2023-12-20T22:11:55;2.00;96.60
35463;DHT22;21578;47.892;9.970;2023-12-20T22:16:42;1.90;96.60
35463;DHT22;21578;47.892;9.970;2023-12-20T22:21:29;2.00;96.60
35463;DHT22;21578;47.892;9.970;2023-12-20T22:26:15;2.00;96.60
35463;DHT22;21578;47.892;9.970;2023-12-20T22:31:03;2.00;96.60
35463;DHT22;21578;47.892;9.970;2023-12-20T22:35:50;2.00;96.60
35463;DHT22;21578;47.892;9.970;2023-12-20T22:40:37;2.10;96.60
35463;DHT22;21578;47.892;9.970;2023-12-20T22:45:24;2.20;96.60
35463;DHT22;21578;47.892;9.970;2023-12-20T22:50:12;2.20;96.60
35463;DHT22;21578;47.892;9.970;2023-12-20T22:54:58;2.20;96.60
35463;DHT22;21578;47.892;9.970;2023-12-20T22:59:45;2.20;96.60
35463;DHT22;21578;47.892;9.970;2023-12-20T23:04:32;2.30;96.60
35463;DHT22;21578;47.892;9.970;2023-12-20T23:09:21;2.30;96.60
35463;DHT22;21578;47.892;9.970;2023-12-20T23:14:08;2.30;96.60
35463;DHT22;21578;47.892;9.970;2023-12-20T23:18:54;2.30;96.60
35463;DHT22;21578;47.892;9.970;2023-12-20T23:23:41;2.30;96.60
35463;DHT22;21578;47.892;9.970;2023-12-20T23:28:30;2.30;96.60
35463;DHT22;21578;47.892;9.970;2023-12-20T23:33:17;2.40;96.60
35463;DHT22;21578;47.892;9.970;2023-12-20T23:38:04;2.40;96.60
35463;DHT22;21578;47.892;9.970;2023-12-20T23:42:51;2.30;96.60
35463;DHT22;21578;47.892;9.970;2023-12-20T23:47:39;2.40;96.60
35463;DHT22;21578;47.892;9.970;2023-12-20T23:52:26;2.30;96.60
35463;DHT22;21578;47.892;9.970;2023-12-20T23:57:12;2.30;96.60
